Hundvaag 1 weather for Feb 2010
Month no. 272
Obs.
Da.
Temp. Dew Point Precip. Wind
Speed
Wind gusts Cloud cover Press. Humidity Wind dir. Sunny OPT
01.02.2010 -1,5 -4,0 0,1 2,6 2,6 4 1005,3 83,0 180,0 1 62,5 %
02.02.2010 0,1 -2,8 10,2 9,3 11,3 0 997,2 81,0 90,0   42,5 %
03.02.2010 -3,0 -7,7 4,0 3,2 4,8 4 994,8 70,0 45,0 1 57,5 %
04.02.2010 -2,1 -7,2 0,0 13,0 13,0 2 1012,1 68,0 90,0   50,0 %
05.02.2010 2,0 -3,1 0,0 20,4 20,9 1 1015,5 69,0 112,5   45,0 %
06.02.2010 4,3 0,4 0,0 5,6 5,6 1 1022,2 76,0 180,0   57,5 %
07.02.2010 3,9 0,8 0,0 0,0 0,0 1 1031,0 80,0 135,0   60,0 %
08.02.2010 -1,2 -4,1 0,0 7,6 7,6 10 1021,9 81,0 0,0   72,5 %
09.02.2010 -2,6 -5,4 0,0 0,0 0,0 10 1013,4 81,0 45,0 1 75,0 %
10.02.2010 -2,4 -7,9 0,0 5,6 5,6 10 1023,9 66,0 22,5 1 75,0 %
11.02.2010 0,7 -2,2 0,0 3,7 3,7 1 1022,6 81,0 135,0   55,0 %
12.02.2010 -0,5 -2,4 0,0 3,7 3,7 10 1028,3 87,0 22,5   75,0 %
13.02.2010 -1,6 -4,3 0,0 0,0 0,0 10 1027,0 82,0 112,5 1 77,5 %
14.02.2010 -1,4 -4,1 0,0 2,1 2,1 10 1021,2 82,0 0,0 1 77,5 %
15.02.2010 2,9 -0,6 0,0 0,0 0,0 1 1021,6 78,0 315,0   60,0 %
16.02.2010 0,1 -5,7 0,0 5,6 5,6 1 1006,7 65,0 67,5   55,0 %
17.02.2010 0,4 -5,8 0,0 3,7 3,7 0 1005,3 63,0 135,0   52,5 %
18.02.2010 -1,5 -7,6 0,0 9,3 12,6 2 1004,6 63,0 45,0   52,5 %
19.02.2010 -2,1 -9,1 0,1 13,0 13,0 7 998,9 59,0 45,0 1 62,5 %
20.02.2010 -2,1 -9,7 0,0 7,4 7,4 1 995,8 56,0 22,5   50,0 %
21.02.2010 -2,1 -6,7 0,6 9,7 9,7 0 999,9 71,0 135,0   47,5 %
22.02.2010 -1,6 -4,8 0,6 11,1 11,1 0 995,8 79,0 135,0 1 45,0 %
23.02.2010 -2,4 -5,4 1,3 20,4 20,4 7 995,1 80,0 157,5 1 57,5 %
24.02.2010 -1,4 -6,7 0,0 9,3 9,3 2 1005,6 67,0 90,0   52,5 %
25.02.2010 -0,6 -5,6 0,0 16,7 16,7 1 1002,3 69,0 315,0   45,0 %
26.02.2010 0,4 -1,2 6,0 1,9 1,9 2 994,8 89,0 22,5 1 55,0 %
27.02.2010 2,2 -0,4 0,0 2,6 2,6 1 995,5 83,0 292,5   57,5 %
28.02.2010 -0,5 -2,2 2,0 3,7 3,7 2 996,2 88,0 22,5 1 55,0 %
                       
                       
                       
Avrg/Sum -0,5 -4,5 24,9 6,8 7,1 3,6 1009,1 74,9 106,1 11 58,2 %